Terminal Aerodrome Forecast
Issued by NWS

Home | Current Version | Previous Version | Text Only | Print | Product List | Glossary On
Versions: 1 2 3 4 5 6 7 8 9 10 11 12 13 14 15
964
FTUS41 KPBZ 262028 AAD
TAFFKL
TAF AMD
KFKL 262028Z 2620/2718 24008KT P6SM VCSH OVC025
     FM262300 27010G16KT P6SM VCSH OVC015
     FM270100 27007KT P6SM BKN150
     FM270500 23006KT P6SM SCT200
      AMD NOT SKED=

USA.gov is the U.S. government's official web portal to all federal, state and local government web resources and services.